Flight Track Log - Related Links

Times and Time Zones

All times are in EST time to prevent confusion due to time zone crossing. See the ADR727 flight status page for this flight to view local times or setup timezone preferences in your user account.

Time Position Orientation Groundspeed Altitude Reporting Facility
EST Latitude Longitude Course Direction KTS MPH feet Rate Location/Type
Tue 11:14:00 PM 42.1640 18.9702 324° Northwest  Level Estimated
Tue 11:15:00 PM 42.2469 18.8857 323° Northwest  Level Estimated
Tue 11:16:00 PM 42.3298 18.8010 323° Northwest  Level Estimated
Tue 11:17:00 PM 42.4127 18.7161 323° Northwest  Level Estimated
Tue 11:18:00 PM 42.4954 18.6310 323° Northwest  Level Estimated
Tue 11:19:00 PM 42.5781 18.5456 323° Northwest  Level Estimated
Tue 11:20:00 PM 42.6607 18.4600 323° Northwest  Level Estimated
Tue 11:21:00 PM 42.7433 18.3742 323° Northwest  Level Estimated
Tue 11:22:00 PM 42.8258 18.2882 323° Northwest  Level Estimated
Tue 11:23:00 PM 42.9082 18.2019 323° Northwest  Level Estimated
Tue 11:24:00 PM 42.9906 18.1154 322° Northwest  Level Estimated
Tue 11:25:00 PM 43.0729 18.0286 322° Northwest  Level Estimated
Tue 11:26:00 PM 43.1552 17.9417 322° Northwest  Level Estimated
Tue 11:27:00 PM 43.2374 17.8544 322° Northwest  Level Estimated
Tue 11:28:00 PM 43.3195 17.7670 322° Northwest  Level Estimated
Tue 11:29:00 PM 43.4015 17.6793 322° Northwest  Level Estimated
Tue 11:30:00 PM 43.4835 17.5914 322° Northwest  Level Estimated
Tue 11:31:00 PM 43.5654 17.5032 322° Northwest  Level Estimated
Tue 11:32:00 PM 43.6472 17.4148 322° Northwest  Level Estimated
Tue 11:33:00 PM 43.7290 17.3262 322° Northwest  Level Estimated
Tue 11:34:00 PM 43.8107 17.2373 322° Northwest  Level Estimated
Tue 11:35:00 PM 43.8924 17.1482 322° Northwest  Level Estimated
Tue 11:36:00 PM 43.9739 17.0588 322° Northwest  Level Estimated
Tue 11:37:00 PM 44.0554 16.9692 322° Northwest  Level Estimated
Tue 11:38:00 PM 44.1369 16.8794 322° Northwest  Level Estimated
Tue 11:39:00 PM 44.2182 16.7892 322° Northwest  Level Estimated
Tue 11:40:00 PM 44.2995 16.6989 322° Northwest  Level Estimated
Tue 11:41:00 PM 44.3807 16.6083 321° Northwest  Level Estimated
Tue 11:42:00 PM 44.4618 16.5174 321° Northwest  Level Estimated
Tue 11:43:00 PM 44.5429 16.4263 321° Northwest  Level Estimated
Tue 11:44:00 PM 44.6239 16.3349 321° Northwest  Level Estimated
Tue 11:45:00 PM 44.7048 16.2433 321° Northwest  Level Estimated
Tue 11:46:00 PM 44.7857 16.1514 321° Northwest  Level Estimated
Tue 11:47:00 PM 44.8665 16.0593 321° Northwest  Level Estimated
Tue 11:48:00 PM 44.9472 15.9669 321° Northwest  Level Estimated
Tue 11:49:00 PM 45.0278 15.8743 321° Northwest  Level Estimated
Tue 11:50:00 PM 45.1083 15.7814 321° Northwest  Level Estimated
Tue 11:51:00 PM 45.1888 15.6882 321° Northwest  Level Estimated
Tue 11:52:00 PM 45.2692 15.5947 321° Northwest  Level Estimated
Tue 11:53:00 PM 45.3495 15.5010 321° Northwest  Level Estimated
Tue 11:54:00 PM 45.4298 15.4071 321° Northwest  Level Estimated
Tue 11:55:00 PM 45.5100 15.3128 321° Northwest  Level Estimated
Tue 11:56:00 PM 45.5901 15.2183 320° Northwest  Level Estimated
Tue 11:57:00 PM 45.6701 15.1235 320° Northwest  Level Estimated
Tue 11:58:00 PM 45.7500 15.0285 320° Northwest  Level Estimated
Tue 11:59:00 PM 45.8299 14.9332 320° Northwest  Level Estimated
Wed 12:00:00 AM 45.9096 14.8376 320° Northwest  Level Estimated
Wed 12:01:00 AM 45.9893 14.7417 320° Northwest  Level Estimated
Wed 12:02:00 AM 46.0690 14.6455 320° Northwest  Level Estimated
Wed 12:03:00 AM 46.1485 14.5491 320° Northwest  Level Estimated
Wed 12:04:00 AM 46.2237 14.4576 320° Northwest  Level Estimated
Wed 12:05:00 AM 46.2237 14.4576 170° South  Level Estimated
Wed 12:06:00 AM 46.2237 14.4576 170° South  Level Estimated
Wed 12:07:00 AM 46.2237 14.4576 170° South  Level Estimated
Wed 12:08:00 AM 46.2237 14.4576 170° South  Level Estimated
Wed 12:09:00 AM 46.2237 14.4576 170° South  Level Estimated
Wed 12:10:00 AM 46.2237 14.4576 170° South  Level Estimated
Wed 12:11:00 AM 46.2237 14.4576 170° South  Level Estimated
Wed 12:12:00 AM 46.2237 14.4576 170° South  Level Estimated
Wed 12:13:00 AM 46.2237 14.4576 170° South  Level Estimated
Wed 12:14:00 AM 46.2237 14.4576 170° South  Level Estimated
Wed 12:15:00 AM 46.2237 14.4576 170° South  Level Estimated
Wed 12:16:00 AM 46.2237 14.4576 170° South  Level Estimated
Wed 12:17:00 AM 46.2237 14.4576 170° South  Level Estimated
Wed 12:18:00 AM 46.2237 14.4576 170° South  Level Estimated
Wed 12:19:00 AM 46.2237 14.4576 170° South  Level Estimated
Wed 12:20:00 AM 46.2237 14.4576 170° South  Level Estimated

Login

Don't have an account? Register now (free) for customized features, flight alerts, and more!